Duncan, Canada
Current Conditions -  °F | °C
As of 9:00 PM on Tuesday 25 Nov 2014 (Local Time) from CYYJ Reporting Station
Light Rain Light Rain  
Wind Chill: 45°   Ceiling: 700
Heat Index: 45°   Visibility: 1.5mi
Dew Point: 43°   Wind: 0mph
Humidity: 93%   Direction: NA
Pressure: 30.13"   Gusts: NA
Location:  48.78°N, 123.7°W
Report Text: CYYJ 260500Z 00000KT 1 1/2SM -RA BR SCT003 OVC007 07/06 A3013 RMK SF3SF5 SLP204
Loading
Personal Weather Stations






























Interactive Weather Map New forecast layout! Learn more

10-Day Weather Forecast

Advertisements
Track Severe Weather on mobile